Time;durP1;ratioP1;P1;durP2;ratioP2;P2;SDS_P1;SDS_P2;PMS_P1;PMS_P2;Temp;Humidity;BMP_temperature;BMP_pressure;BME280_temperature;BME280_humidity;BME280_pressure;Samples;Min_cycle;Max_cycle;Signal;HPM_P1;HPM_P2
2023/12/17 00:00:11;;;;;;;2.33;1.50;;;;;;;;;;5038365;28;20547;-60
2023/12/17 00:02:36;;;;;;;2.72;1.73;;;;;;;;;;5036974;28;20048;-59
2023/12/17 00:05:01;;;;;;;3.42;1.88;;;;;;;;;;5035830;28;20040;-59
2023/12/17 00:07:27;;;;;;;2.83;1.70;;;;;;;;;;5037429;28;20472;-60
2023/12/17 00:09:52;;;;;;;2.55;1.60;;;;;;;;;;5037573;28;20032;-60
2023/12/17 00:12:17;;;;;;;3.10;1.80;;;;;;;;;;5036731;28;20039;-60
2023/12/17 00:14:43;;;;;;;2.22;1.33;;;;;;;;;;5011397;28;20045;-58
2023/12/17 00:17:08;;;;;;;1.83;1.42;;;;;;;;;;5028054;28;20601;-59
2023/12/17 00:19:33;;;;;;;2.35;1.40;;;;;;;;;;5036416;28;20118;-59
2023/12/17 00:21:59;;;;;;;3.15;1.95;;;;;;;;;;5038891;28;20033;-59
2023/12/17 00:24:24;;;;;;;2.13;1.52;;;;;;;;;;5037037;28;20128;-58
2023/12/17 00:26:49;;;;;;;2.75;1.77;;;;;;;;;;5037059;28;20437;-59
2023/12/17 00:29:14;;;;;;;2.08;1.35;;;;;;;;;;5036131;28;20052;-60
2023/12/17 00:31:40;;;;;;;2.47;1.52;;;;;;;;;;5039326;28;20039;-59
2023/12/17 00:34:05;;;;;;;3.15;2.17;;;;;;;;;;5043400;28;20029;-58
2023/12/17 00:36:30;;;;;;;2.70;1.50;;;;;;;;;;5019637;28;20037;-60
2023/12/17 00:38:56;;;;;;;2.28;1.48;;;;;;;;;;5041267;28;20110;-59
2023/12/17 00:41:21;;;;;;;2.10;1.30;;;;;;;;;;5048657;28;20564;-58
2023/12/17 00:43:46;;;;;;;2.50;1.30;;;;;;;;;;5043593;28;20037;-60
2023/12/17 00:46:11;;;;;;;2.25;1.55;;;;;;;;;;5032606;28;20739;-58
2023/12/17 00:48:37;;;;;;;2.22;1.70;;;;;;;;;;5031285;28;20151;-58
2023/12/17 00:51:04;;;;;;;1.88;1.50;;;;;;;;;;5055186;28;20071;-58
2023/12/17 00:53:29;;;;;;;2.05;1.50;;;;;;;;;;5047650;28;20080;-58
2023/12/17 00:55:54;;;;;;;2.33;1.45;;;;;;;;;;5051563;28;20518;-60
2023/12/17 00:58:20;;;;;;;2.95;1.55;;;;;;;;;;5029453;28;20116;-59
2023/12/17 01:00:45;;;;;;;2.83;1.83;;;;;;;;;;5046606;28;20035;-59
2023/12/17 01:03:10;;;;;;;2.40;1.77;;;;;;;;;;5052781;28;20191;-58
2023/12/17 01:05:36;;;;;;;2.58;1.45;;;;;;;;;;5035398;28;20551;-58
2023/12/17 01:08:01;;;;;;;2.08;1.50;;;;;;;;;;5043939;28;20037;-59
2023/12/17 01:10:27;;;;;;;3.53;1.50;;;;;;;;;;5030317;28;20045;-58
2023/12/17 01:12:52;;;;;;;2.38;1.50;;;;;;;;;;5047078;28;20052;-58
2023/12/17 01:15:17;;;;;;;2.30;1.60;;;;;;;;;;5043985;28;20059;-59
2023/12/17 01:17:43;;;;;;;2.20;1.40;;;;;;;;;;5048850;28;20106;-58
2023/12/17 01:20:08;;;;;;;2.22;1.30;;;;;;;;;;5054599;28;20392;-58
2023/12/17 01:22:34;;;;;;;2.42;1.70;;;;;;;;;;5028342;28;20515;-58
2023/12/17 01:24:59;;;;;;;2.05;1.55;;;;;;;;;;5028840;28;20049;-58
2023/12/17 01:27:24;;;;;;;2.15;1.55;;;;;;;;;;5049655;28;20036;-58
2023/12/17 01:29:50;;;;;;;2.60;1.90;;;;;;;;;;5054871;28;20029;-59
2023/12/17 01:32:15;;;;;;;2.10;1.40;;;;;;;;;;5047502;28;20033;-58
2023/12/17 01:34:40;;;;;;;2.53;1.75;;;;;;;;;;5054989;28;20044;-58
2023/12/17 01:37:06;;;;;;;2.22;1.50;;;;;;;;;;5042157;28;20037;-57
2023/12/17 01:39:31;;;;;;;2.33;1.52;;;;;;;;;;5023793;28;20029;-58
2023/12/17 01:41:56;;;;;;;2.40;1.70;;;;;;;;;;5046906;28;20037;-59
2023/12/17 01:44:22;;;;;;;2.00;1.40;;;;;;;;;;5046359;28;20487;-58
2023/12/17 01:46:47;;;;;;;2.40;1.40;;;;;;;;;;5043241;28;20037;-59
2023/12/17 01:49:12;;;;;;;2.28;1.60;;;;;;;;;;5047937;28;20098;-58
2023/12/17 01:51:38;;;;;;;2.17;1.50;;;;;;;;;;5066517;28;20068;-59
2023/12/17 01:54:03;;;;;;;2.38;1.60;;;;;;;;;;5063270;28;20888;-59
2023/12/17 01:56:28;;;;;;;1.83;1.52;;;;;;;;;;5039589;28;20589;-58
2023/12/17 01:58:54;;;;;;;2.40;1.63;;;;;;;;;;5054019;28;20119;-59
2023/12/17 02:01:19;;;;;;;2.20;1.63;;;;;;;;;;5049443;28;20044;-60
2023/12/17 02:03:44;;;;;;;1.90;1.38;;;;;;;;;;5048871;28;20059;-59
2023/12/17 02:06:10;;;;;;;2.17;1.67;;;;;;;;;;5045030;28;20387;-59
2023/12/17 02:08:35;;;;;;;2.30;1.40;;;;;;;;;;5046962;28;20041;-59
2023/12/17 02:11:01;;;;;;;2.90;1.75;;;;;;;;;;5046804;28;20036;-59
2023/12/17 02:13:26;;;;;;;1.98;1.50;;;;;;;;;;5038201;28;20053;-59
2023/12/17 02:15:51;;;;;;;2.38;1.67;;;;;;;;;;5044949;28;20202;-58
2023/12/17 02:18:17;;;;;;;2.25;1.67;;;;;;;;;;5027371;28;20573;-59
2023/12/17 02:20:42;;;;;;;2.35;1.55;;;;;;;;;;5060962;28;20134;-59
2023/12/17 02:23:08;;;;;;;2.05;1.42;;;;;;;;;;5049566;28;20430;-59
2023/12/17 02:25:33;;;;;;;3.30;1.88;;;;;;;;;;5053197;28;20443;-58
2023/12/17 02:27:58;;;;;;;2.15;1.50;;;;;;;;;;5026781;28;20049;-59
2023/12/17 02:30:24;;;;;;;2.40;1.73;;;;;;;;;;5037569;28;20071;-58
2023/12/17 02:32:49;;;;;;;2.08;1.50;;;;;;;;;;5036700;28;20032;-60
2023/12/17 02:35:15;;;;;;;2.15;1.52;;;;;;;;;;5034508;28;20048;-61
2023/12/17 02:37:40;;;;;;;2.38;1.60;;;;;;;;;;5037744;28;20040;-60
2023/12/17 02:40:06;;;;;;;2.03;1.48;;;;;;;;;;5046532;28;20076;-59
2023/12/17 02:42:31;;;;;;;2.35;1.70;;;;;;;;;;5042207;28;20569;-58
2023/12/17 02:44:56;;;;;;;2.90;1.80;;;;;;;;;;5042567;28;20780;-56
2023/12/17 02:47:21;;;;;;;2.72;1.75;;;;;;;;;;5031357;28;20103;-57
2023/12/17 02:49:47;;;;;;;2.50;1.63;;;;;;;;;;5046386;28;20040;-57
2023/12/17 02:52:12;;;;;;;2.53;1.67;;;;;;;;;;5029190;28;20040;-57
2023/12/17 02:54:38;;;;;;;2.45;1.70;;;;;;;;;;5030718;28;20561;-58
2023/12/17 02:57:03;;;;;;;2.58;1.58;;;;;;;;;;5056656;28;20530;-57
2023/12/17 02:59:28;;;;;;;2.38;1.65;;;;;;;;;;5023963;28;20037;-59
2023/12/17 03:01:54;;;;;;;1.98;1.58;;;;;;;;;;5041922;28;20060;-59
2023/12/17 03:04:19;;;;;;;2.55;1.80;;;;;;;;;;5029883;28;20048;-58
2023/12/17 03:06:44;;;;;;;2.20;1.52;;;;;;;;;;5022474;28;20036;-58
2023/12/17 03:09:11;;;;;;;2.20;1.60;;;;;;;;;;5053234;28;20045;-59
2023/12/17 03:11:36;;;;;;;1.92;1.50;;;;;;;;;;5066007;28;20124;-58
2023/12/17 03:14:01;;;;;;;1.73;1.30;;;;;;;;;;5064545;28;20759;-58
2023/12/17 03:16:27;;;;;;;2.10;1.50;;;;;;;;;;5044885;28;20534;-57
2023/12/17 03:18:52;;;;;;;2.28;1.55;;;;;;;;;;5019496;28;20497;-58
2023/12/17 03:21:17;;;;;;;2.67;1.80;;;;;;;;;;5041587;28;20430;-58
2023/12/17 03:23:43;;;;;;;2.30;1.60;;;;;;;;;;5040949;28;20077;-57
2023/12/17 03:26:08;;;;;;;2.17;1.67;;;;;;;;;;5044274;28;20562;-59
2023/12/17 03:28:33;;;;;;;2.75;1.98;;;;;;;;;;5043576;28;20040;-58
2023/12/17 03:30:59;;;;;;;2.92;1.90;;;;;;;;;;5053943;28;20109;-57
2023/12/17 03:33:24;;;;;;;2.22;1.67;;;;;;;;;;5058035;28;20044;-57
2023/12/17 03:35:49;;;;;;;2.65;1.48;;;;;;;;;;5040626;28;20064;-58
2023/12/17 03:38:15;;;;;;;2.65;1.75;;;;;;;;;;5036457;28;20033;-57
2023/12/17 03:40:40;;;;;;;2.10;1.60;;;;;;;;;;5064639;28;20064;-58
2023/12/17 03:43:06;;;;;;;2.38;1.80;;;;;;;;;;5054990;28;20270;-58
2023/12/17 03:45:33;;;;;;;1.95;1.55;;;;;;;;;;5043229;28;20120;-58
2023/12/17 03:47:58;;;;;;;2.40;1.85;;;;;;;;;;5039630;28;20044;-58
2023/12/17 03:50:24;;;;;;;2.33;1.65;;;;;;;;;;5019246;28;20495;-58
2023/12/17 03:52:49;;;;;;;2.40;1.70;;;;;;;;;;5051736;28;20044;-60
2023/12/17 03:55:14;;;;;;;2.20;1.50;;;;;;;;;;5059418;28;20047;-58
2023/12/17 03:57:40;;;;;;;2.40;1.60;;;;;;;;;;5050192;28;20041;-59
2023/12/17 04:00:06;;;;;;;1.95;1.55;;;;;;;;;;5046026;28;20044;-58
2023/12/17 04:02:31;;;;;;;2.28;1.60;;;;;;;;;;5059514;28;20045;-59
2023/12/17 04:04:57;;;;;;;2.65;1.60;;;;;;;;;;5045347;28;20046;-58
2023/12/17 04:07:22;;;;;;;1.98;1.55;;;;;;;;;;5037764;28;20568;-60
2023/12/17 04:09:47;;;;;;;2.20;1.58;;;;;;;;;;5040639;28;20106;-58
2023/12/17 04:12:13;;;;;;;2.50;1.50;;;;;;;;;;5026993;28;20430;-58
2023/12/17 04:14:38;;;;;;;2.53;1.50;;;;;;;;;;5065003;28;20549;-58
2023/12/17 04:17:03;;;;;;;2.00;1.60;;;;;;;;;;5039550;28;20106;-58
2023/12/17 04:19:29;;;;;;;2.80;1.67;;;;;;;;;;5043643;28;20043;-58
2023/12/17 04:21:54;;;;;;;2.30;1.50;;;;;;;;;;5044886;28;20422;-59
2023/12/17 04:24:19;;;;;;;2.17;1.50;;;;;;;;;;5042159;28;20517;-58
2023/12/17 04:26:45;;;;;;;2.47;1.83;;;;;;;;;;5050435;28;20059;-58
2023/12/17 04:29:11;;;;;;;2.20;1.55;;;;;;;;;;5045389;28;20052;-58
2023/12/17 04:31:36;;;;;;;2.58;1.73;;;;;;;;;;5058688;28;20075;-58
2023/12/17 04:34:01;;;;;;;2.35;1.60;;;;;;;;;;5060426;28;20047;-58
2023/12/17 04:36:27;;;;;;;2.17;1.58;;;;;;;;;;5057085;28;20057;-59
2023/12/17 04:38:52;;;;;;;2.13;1.50;;;;;;;;;;5039776;28;20116;-58
2023/12/17 04:41:17;;;;;;;2.13;1.50;;;;;;;;;;5044474;28;20502;-59
2023/12/17 04:43:43;;;;;;;2.08;1.50;;;;;;;;;;5024869;28;20040;-58
2023/12/17 04:46:08;;;;;;;2.42;1.67;;;;;;;;;;5019649;28;20036;-58
2023/12/17 04:48:33;;;;;;;1.70;1.42;;;;;;;;;;5044114;28;20037;-59
2023/12/17 04:50:59;;;;;;;2.08;1.50;;;;;;;;;;5026717;28;20052;-59
2023/12/17 04:53:24;;;;;;;2.30;1.80;;;;;;;;;;5045829;28;20037;-59
2023/12/17 04:55:49;;;;;;;2.05;1.50;;;;;;;;;;5064822;28;20696;-60
2023/12/17 04:58:15;;;;;;;2.45;1.70;;;;;;;;;;5039991;28;20789;-59
2023/12/17 05:00:40;;;;;;;2.10;1.50;;;;;;;;;;5054705;28;20038;-59
2023/12/17 05:03:06;;;;;;;2.28;1.58;;;;;;;;;;5047094;28;20483;-58
2023/12/17 05:05:31;;;;;;;2.38;1.55;;;;;;;;;;5031336;28;20483;-60
2023/12/17 05:07:56;;;;;;;2.00;1.48;;;;;;;;;;5026940;28;20037;-58
2023/12/17 05:10:22;;;;;;;2.85;1.40;;;;;;;;;;5040805;28;20049;-59
2023/12/17 05:12:47;;;;;;;2.30;1.50;;;;;;;;;;5035076;28;20396;-59
2023/12/17 05:15:12;;;;;;;2.25;1.45;;;;;;;;;;5042422;28;20451;-60
2023/12/17 05:17:38;;;;;;;2.30;1.30;;;;;;;;;;5043686;28;20415;-59
2023/12/17 05:20:03;;;;;;;2.45;1.65;;;;;;;;;;5036433;28;20044;-59
2023/12/17 05:22:28;;;;;;;2.65;1.50;;;;;;;;;;5048761;28;20036;-59
2023/12/17 05:24:54;;;;;;;1.70;1.40;;;;;;;;;;5050057;28;20037;-59
2023/12/17 05:27:19;;;;;;;2.20;1.52;;;;;;;;;;5042298;28;20151;-59
2023/12/17 05:29:44;;;;;;;2.10;1.48;;;;;;;;;;5052918;28;20044;-58
2023/12/17 05:32:10;;;;;;;2.90;1.73;;;;;;;;;;5039764;28;20120;-58
2023/12/17 05:34:35;;;;;;;1.40;1.08;;;;;;;;;;5045058;28;20049;-58
2023/12/17 05:37:00;;;;;;;2.20;1.58;;;;;;;;;;5033417;28;20515;-58
2023/12/17 05:39:26;;;;;;;3.05;1.58;;;;;;;;;;5033478;28;20562;-59
2023/12/17 05:41:51;;;;;;;1.90;1.52;;;;;;;;;;5039154;28;20094;-58
2023/12/17 05:44:16;;;;;;;1.90;1.15;;;;;;;;;;5043945;28;20083;-58
2023/12/17 05:46:42;;;;;;;2.15;1.50;;;;;;;;;;5061862;28;20045;-58
2023/12/17 05:49:07;;;;;;;1.88;1.45;;;;;;;;;;5041757;28;20045;-59
2023/12/17 05:51:32;;;;;;;3.05;1.52;;;;;;;;;;5025950;28;20052;-58
2023/12/17 05:53:57;;;;;;;1.92;1.40;;;;;;;;;;5027122;28;20035;-58
2023/12/17 05:56:23;;;;;;;1.88;1.30;;;;;;;;;;5045197;28;20048;-57
2023/12/17 05:58:49;;;;;;;1.92;1.48;;;;;;;;;;5022892;28;20084;-58
2023/12/17 06:01:14;;;;;;;1.92;1.45;;;;;;;;;;5035693;28;20529;-57
2023/12/17 06:03:39;;;;;;;2.28;1.50;;;;;;;;;;5039772;28;20047;-57
2023/12/17 06:06:05;;;;;;;1.67;1.40;;;;;;;;;;5041219;28;20045;-58
2023/12/17 06:08:30;;;;;;;1.95;1.40;;;;;;;;;;5027935;28;20045;-58
2023/12/17 06:10:56;;;;;;;2.30;1.30;;;;;;;;;;5043211;28;20045;-58
2023/12/17 06:13:21;;;;;;;2.10;1.50;;;;;;;;;;5044865;28;20033;-58
2023/12/17 06:15:47;;;;;;;2.20;1.45;;;;;;;;;;5032332;28;20049;-60
2023/12/17 06:18:15;;;;;;;1.80;1.20;;;;;;;;;;5014678;28;20033;-60
2023/12/17 06:20:40;;;;;;;2.50;1.55;;;;;;;;;;5020701;28;20048;-58
2023/12/17 06:23:06;;;;;;;1.80;1.30;;;;;;;;;;5030322;28;20116;-58
2023/12/17 06:25:31;;;;;;;1.92;1.30;;;;;;;;;;5024258;28;20151;-59
2023/12/17 06:27:57;;;;;;;2.22;1.38;;;;;;;;;;5031177;28;20087;-59
2023/12/17 06:30:22;;;;;;;2.25;1.55;;;;;;;;;;5021325;28;20033;-59
2023/12/17 06:32:47;;;;;;;2.10;1.40;;;;;;;;;;5018647;28;20044;-59
2023/12/17 06:35:13;;;;;;;1.73;1.20;;;;;;;;;;5025674;28;20046;-59
2023/12/17 06:37:38;;;;;;;2.20;1.50;;;;;;;;;;5043680;28;20049;-58
2023/12/17 06:40:03;;;;;;;2.05;1.40;;;;;;;;;;5027550;28;20117;-59
2023/12/17 06:42:29;;;;;;;2.00;1.33;;;;;;;;;;5030696;28;20079;-59
2023/12/17 06:44:54;;;;;;;2.03;1.60;;;;;;;;;;5038903;28;20033;-59
2023/12/17 06:47:19;;;;;;;2.33;1.70;;;;;;;;;;5014080;28;21127;-60
2023/12/17 06:49:45;;;;;;;2.10;1.60;;;;;;;;;;5028890;28;20556;-58
2023/12/17 06:52:10;;;;;;;2.00;1.50;;;;;;;;;;5022483;28;20574;-58
2023/12/17 06:54:35;;;;;;;2.20;1.23;;;;;;;;;;5035851;28;20107;-57
2023/12/17 06:57:01;;;;;;;2.13;1.38;;;;;;;;;;5033927;28;20123;-59
2023/12/17 06:59:26;;;;;;;2.25;1.50;;;;;;;;;;5028539;28;20037;-58
2023/12/17 07:01:51;;;;;;;2.30;1.70;;;;;;;;;;5019350;28;20055;-58
2023/12/17 07:04:17;;;;;;;2.30;1.45;;;;;;;;;;5037700;28;20562;-58
2023/12/17 07:06:42;;;;;;;2.25;1.63;;;;;;;;;;5032093;28;20044;-60
2023/12/17 07:09:07;;;;;;;2.35;1.45;;;;;;;;;;5032577;28;20029;-60
2023/12/17 07:11:33;;;;;;;1.95;1.35;;;;;;;;;;5033233;28;20028;-61
2023/12/17 07:13:58;;;;;;;1.80;1.30;;;;;;;;;;5017178;28;20067;-61
2023/12/17 07:16:26;;;;;;;2.10;1.50;;;;;;;;;;5026720;28;20045;-59
2023/12/17 07:18:52;;;;;;;1.65;1.15;;;;;;;;;;5042250;28;20037;-63
2023/12/17 07:21:17;;;;;;;1.85;1.27;;;;;;;;;;5016370;28;20056;-61
2023/12/17 07:23:43;;;;;;;1.92;1.38;;;;;;;;;;5038221;28;20602;-60
2023/12/17 07:26:08;;;;;;;2.40;1.52;;;;;;;;;;5036294;28;20044;-58
2023/12/17 07:28:33;;;;;;;2.10;1.35;;;;;;;;;;5029777;28;22160;-59
2023/12/17 07:30:59;;;;;;;1.98;1.30;;;;;;;;;;5038906;28;20043;-61
2023/12/17 07:33:24;;;;;;;2.05;1.45;;;;;;;;;;5031870;28;20049;-60
2023/12/17 07:35:50;;;;;;;2.20;1.50;;;;;;;;;;5035293;28;20048;-59
2023/12/17 07:38:15;;;;;;;1.70;1.15;;;;;;;;;;5034159;28;20402;-59
2023/12/17 07:40:41;;;;;;;1.88;1.48;;;;;;;;;;5039623;28;20157;-59
2023/12/17 07:43:06;;;;;;;2.35;1.35;;;;;;;;;;5040792;28;20495;-60
2023/12/17 07:45:33;;;;;;;1.95;1.45;;;;;;;;;;5042977;28;20063;-59
2023/12/17 07:47:59;;;;;;;2.13;1.58;;;;;;;;;;5038194;28;20604;-59
2023/12/17 07:50:24;;;;;;;2.13;1.20;;;;;;;;;;5030572;28;20057;-61
2023/12/17 07:52:49;;;;;;;2.10;1.50;;;;;;;;;;5033826;28;20037;-61
2023/12/17 07:55:15;;;;;;;1.92;1.48;;;;;;;;;;5024225;28;20471;-59
2023/12/17 07:57:40;;;;;;;2.35;1.60;;;;;;;;;;5016812;28;20132;-61
2023/12/17 08:00:07;;;;;;;2.10;1.60;;;;;;;;;;5036798;28;20040;-61
2023/12/17 08:02:33;;;;;;;1.73;1.20;;;;;;;;;;5037082;28;20087;-59
2023/12/17 08:04:58;;;;;;;2.20;1.50;;;;;;;;;;5021346;28;20068;-60
2023/12/17 08:07:23;;;;;;;2.10;1.50;;;;;;;;;;5035610;28;20020;-59
2023/12/17 08:09:49;;;;;;;1.90;1.50;;;;;;;;;;5015433;28;20086;-60
2023/12/17 08:12:14;;;;;;;1.50;1.27;;;;;;;;;;5025852;28;20211;-58
2023/12/17 08:14:41;;;;;;;2.15;1.50;;;;;;;;;;5035256;28;20044;-60
2023/12/17 08:17:07;;;;;;;2.25;1.63;;;;;;;;;;5028246;28;20039;-59
2023/12/17 08:19:32;;;;;;;2.50;1.52;;;;;;;;;;5037277;28;20025;-59
2023/12/17 08:21:57;;;;;;;2.50;1.52;;;;;;;;;;5022526;28;20036;-60
2023/12/17 08:24:23;;;;;;;2.13;1.40;;;;;;;;;;5032841;28;20475;-59
2023/12/17 08:26:48;;;;;;;1.92;1.38;;;;;;;;;;5034291;28;20024;-60
2023/12/17 08:29:13;;;;;;;2.15;1.58;;;;;;;;;;5016802;28;20024;-61
2023/12/17 08:31:42;;;;;;;2.17;1.48;;;;;;;;;;5022017;28;20033;-60
2023/12/17 08:34:07;;;;;;;2.47;1.33;;;;;;;;;;5022037;28;20108;-60
2023/12/17 08:36:32;;;;;;;2.10;1.52;;;;;;;;;;5037210;28;20099;-60
2023/12/17 08:38:58;;;;;;;1.90;1.40;;;;;;;;;;5036279;28;20460;-61
2023/12/17 08:41:23;;;;;;;2.13;1.50;;;;;;;;;;5030326;28;20691;-60
2023/12/17 08:43:48;;;;;;;3.13;1.80;;;;;;;;;;5038693;28;20422;-59
2023/12/17 08:46:14;;;;;;;2.35;1.70;;;;;;;;;;5032990;28;20368;-60
2023/12/17 08:48:39;;;;;;;1.80;1.30;;;;;;;;;;5037768;28;20024;-59
2023/12/17 08:51:05;;;;;;;1.90;1.50;;;;;;;;;;5019115;28;20687;-59
2023/12/17 08:53:31;;;;;;;1.95;1.50;;;;;;;;;;5009195;28;20082;-59
2023/12/17 08:55:56;;;;;;;2.58;1.65;;;;;;;;;;5018977;28;20033;-60
2023/12/17 08:58:21;;;;;;;2.05;1.52;;;;;;;;;;5033299;28;20107;-59
2023/12/17 09:00:47;;;;;;;2.20;1.60;;;;;;;;;;5032251;28;20124;-59
2023/12/17 09:03:12;;;;;;;2.25;1.45;;;;;;;;;;5034286;28;20034;-59
2023/12/17 09:05:37;;;;;;;2.20;1.52;;;;;;;;;;5019643;28;20040;-60
2023/12/17 09:08:02;;;;;;;3.15;1.80;;;;;;;;;;5034166;28;20041;-60
2023/12/17 09:10:28;;;;;;;2.28;1.77;;;;;;;;;;5034441;28;20017;-60
2023/12/17 09:12:54;;;;;;;3.08;1.50;;;;;;;;;;5032297;28;20059;-60
2023/12/17 09:15:20;;;;;;;2.58;1.67;;;;;;;;;;5036969;28;20422;-60
2023/12/17 09:17:45;;;;;;;3.85;1.73;;;;;;;;;;5032262;28;20021;-60
2023/12/17 09:20:12;;;;;;;2.40;1.75;;;;;;;;;;5005542;28;20039;-60
2023/12/17 09:22:37;;;;;;;2.80;1.70;;;;;;;;;;5010815;28;20528;-59
2023/12/17 09:25:02;;;;;;;4.00;1.55;;;;;;;;;;5001326;28;20041;-59
2023/12/17 09:27:27;;;;;;;2.08;1.60;;;;;;;;;;5029656;28;20090;-60
2023/12/17 09:29:53;;;;;;;2.58;1.63;;;;;;;;;;5031675;28;20029;-60
2023/12/17 09:32:18;;;;;;;2.53;1.67;;;;;;;;;;5011871;28;20050;-60
2023/12/17 09:34:43;;;;;;;3.38;1.98;;;;;;;;;;5035281;28;20043;-60
2023/12/17 09:37:09;;;;;;;3.30;1.55;;;;;;;;;;5037344;28;20039;-64
2023/12/17 09:39:34;;;;;;;4.78;1.80;;;;;;;;;;5016725;28;20079;-59
2023/12/17 09:41:59;;;;;;;2.70;1.80;;;;;;;;;;5035418;28;20032;-61
2023/12/17 09:44:26;;;;;;;2.53;1.70;;;;;;;;;;5030373;28;20486;-60
2023/12/17 09:46:52;;;;;;;2.38;1.52;;;;;;;;;;5037821;28;20669;-60
2023/12/17 09:49:17;;;;;;;2.90;1.73;;;;;;;;;;5031756;28;20164;-60
2023/12/17 09:51:44;;;;;;;2.53;1.52;;;;;;;;;;5038042;28;20042;-59
2023/12/17 09:54:09;;;;;;;3.03;1.83;;;;;;;;;;5029464;28;20037;-58
2023/12/17 09:56:35;;;;;;;2.67;1.95;;;;;;;;;;5034314;28;20111;-59
2023/12/17 09:59:00;;;;;;;3.25;1.75;;;;;;;;;;4994838;28;20120;-59
2023/12/17 10:01:26;;;;;;;2.17;1.42;;;;;;;;;;5017182;28;20408;-58
2023/12/17 10:03:52;;;;;;;2.80;1.70;;;;;;;;;;5020399;28;20041;-59
2023/12/17 10:06:18;;;;;;;3.83;1.77;;;;;;;;;;5036348;28;20182;-59
2023/12/17 10:08:43;;;;;;;3.70;2.35;;;;;;;;;;5027063;28;20083;-60
2023/12/17 10:11:09;;;;;;;5.75;2.10;;;;;;;;;;5033892;28;20108;-59
2023/12/17 10:13:34;;;;;;;5.35;2.60;;;;;;;;;;5036950;28;20037;-60
2023/12/17 10:15:59;;;;;;;3.70;2.47;;;;;;;;;;5040196;28;20156;-60
2023/12/17 10:18:25;;;;;;;5.07;2.40;;;;;;;;;;5024637;28;20053;-59
2023/12/17 10:20:50;;;;;;;5.53;2.70;;;;;;;;;;5012009;28;20290;-60
2023/12/17 10:23:16;;;;;;;6.30;2.50;;;;;;;;;;5006370;28;20037;-59
2023/12/17 10:25:41;;;;;;;3.72;2.35;;;;;;;;;;5040897;28;20083;-59
2023/12/17 10:28:08;;;;;;;4.10;2.50;;;;;;;;;;5023046;28;20170;-59
2023/12/17 10:30:34;;;;;;;4.07;2.10;;;;;;;;;;5016026;28;20133;-59
2023/12/17 10:32:59;;;;;;;4.35;2.40;;;;;;;;;;5029320;28;20147;-60
2023/12/17 10:35:25;;;;;;;4.35;2.30;;;;;;;;;;5037255;28;20048;-58
2023/12/17 10:37:54;;;;;;;3.55;2.30;;;;;;;;;;5038375;28;20958;-58
2023/12/17 10:40:26;;;;;;;3.70;2.40;;;;;;;;;;5046135;28;20119;-58
2023/12/17 10:42:52;;;;;;;3.35;2.13;;;;;;;;;;5056296;28;20076;-58
2023/12/17 10:45:18;;;;;;;4.00;2.10;;;;;;;;;;5005903;28;20045;-59
2023/12/17 10:47:43;;;;;;;6.10;2.28;;;;;;;;;;5041093;28;20192;-58
2023/12/17 10:50:09;;;;;;;3.05;2.00;;;;;;;;;;5044918;28;20916;-58
2023/12/17 10:52:34;;;;;;;3.42;2.40;;;;;;;;;;5005929;28;20518;-58
2023/12/17 10:54:59;;;;;;;2.70;2.00;;;;;;;;;;5023698;28;20053;-58
2023/12/17 10:57:25;;;;;;;4.20;2.20;;;;;;;;;;5042495;28;20153;-59
2023/12/17 10:59:50;;;;;;;4.32;2.00;;;;;;;;;;5026727;28;20115;-58
2023/12/17 11:02:17;;;;;;;3.83;2.30;;;;;;;;;;5023166;28;21663;-58
2023/12/17 11:04:45;;;;;;;7.82;2.25;;;;;;;;;;5044779;28;20052;-60
2023/12/17 11:07:14;;;;;;;4.43;2.30;;;;;;;;;;5044102;28;20032;-58
2023/12/17 11:09:39;;;;;;;2.83;2.05;;;;;;;;;;5044521;28;20052;-58
2023/12/17 11:12:05;;;;;;;3.10;2.17;;;;;;;;;;5051239;28;20024;-59
2023/12/17 11:14:30;;;;;;;2.97;2.13;;;;;;;;;;5019345;28;20054;-59
2023/12/17 11:16:57;;;;;;;3.10;1.95;;;;;;;;;;5019414;28;20043;-59
2023/12/17 11:19:23;;;;;;;4.75;2.13;;;;;;;;;;5028818;28;20068;-59
2023/12/17 11:21:48;;;;;;;3.97;2.28;;;;;;;;;;5036857;28;20065;-60
2023/12/17 11:24:13;;;;;;;4.07;2.38;;;;;;;;;;5013168;28;20521;-60
2023/12/17 11:26:40;;;;;;;4.82;2.28;;;;;;;;;;5023891;28;20616;-60
2023/12/17 11:29:24;;;;;;;2.72;2.03;;;;;;;;;;5015180;28;20095;-60
2023/12/17 11:31:50;;;;;;;3.42;2.10;;;;;;;;;;5024229;28;20037;-60
2023/12/17 11:34:15;;;;;;;4.25;2.30;;;;;;;;;;5033081;28;20049;-60
2023/12/17 11:36:40;;;;;;;4.00;2.55;;;;;;;;;;5039717;28;20044;-60
2023/12/17 11:39:05;;;;;;;2.65;2.03;;;;;;;;;;5037941;28;20133;-60
2023/12/17 11:41:31;;;;;;;3.10;2.25;;;;;;;;;;5020668;28;20033;-60
2023/12/17 11:43:56;;;;;;;3.40;2.20;;;;;;;;;;5039647;28;20055;-60
2023/12/17 11:46:22;;;;;;;2.75;2.10;;;;;;;;;;5042422;28;20041;-60
2023/12/17 11:48:47;;;;;;;2.45;2.00;;;;;;;;;;5042966;28;20640;-60
2023/12/17 11:51:23;;;;;;;3.25;2.40;;;;;;;;;;5043726;28;20106;-60
2023/12/17 11:53:48;;;;;;;3.10;2.10;;;;;;;;;;5042284;28;20045;-60
2023/12/17 11:56:13;;;;;;;3.25;2.25;;;;;;;;;;5024598;28;20048;-60
2023/12/17 11:58:48;;;;;;;3.45;2.10;;;;;;;;;;5021390;28;20045;-61
2023/12/17 12:01:13;;;;;;;3.63;2.17;;;;;;;;;;5032626;28;20512;-61
2023/12/17 12:03:42;;;;;;;3.30;2.22;;;;;;;;;;5004319;28;20102;-59
2023/12/17 12:06:11;;;;;;;4.00;2.35;;;;;;;;;;5020813;28;20945;-60
2023/12/17 12:08:39;;;;;;;3.58;2.00;;;;;;;;;;5036507;28;20053;-60
2023/12/17 12:11:05;;;;;;;3.33;2.42;;;;;;;;;;5044060;28;20113;-59
2023/12/17 12:13:30;;;;;;;2.88;1.88;;;;;;;;;;5038440;28;20128;-60
2023/12/17 12:15:56;;;;;;;3.65;2.10;;;;;;;;;;5024556;28;20065;-60
2023/12/17 12:18:22;;;;;;;3.15;2.20;;;;;;;;;;5016295;28;20513;-60
2023/12/17 12:20:48;;;;;;;3.53;2.35;;;;;;;;;;5032382;28;20041;-60
2023/12/17 12:23:13;;;;;;;2.80;2.08;;;;;;;;;;5017075;28;20275;-60
2023/12/17 12:25:38;;;;;;;2.72;1.80;;;;;;;;;;5034794;28;20463;-61
2023/12/17 12:28:07;;;;;;;3.25;2.10;;;;;;;;;;5046515;28;20120;-60
2023/12/17 12:30:32;;;;;;;2.75;2.10;;;;;;;;;;5026009;28;20615;-60
2023/12/17 12:33:17;;;;;;;2.85;1.98;;;;;;;;;;5037496;28;20038;-60
2023/12/17 12:35:43;;;;;;;3.85;2.40;;;;;;;;;;4991700;28;20054;-60
2023/12/17 12:38:17;;;;;;;3.65;2.30;;;;;;;;;;5024708;28;20573;-60
2023/12/17 12:40:42;;;;;;;3.35;2.00;;;;;;;;;;5044198;28;20108;-60
2023/12/17 12:43:08;;;;;;;2.90;2.00;;;;;;;;;;5044905;28;20133;-60
2023/12/17 12:45:33;;;;;;;3.75;2.10;;;;;;;;;;5037053;28;20454;-60
2023/12/17 12:47:58;;;;;;;3.15;2.03;;;;;;;;;;5021954;28;20071;-60
2023/12/17 12:50:24;;;;;;;3.53;2.20;;;;;;;;;;5041684;28;20083;-60
2023/12/17 12:52:49;;;;;;;3.40;2.25;;;;;;;;;;5023862;28;20021;-60
2023/12/17 12:55:15;;;;;;;3.20;2.00;;;;;;;;;;5037043;28;20040;-60
2023/12/17 12:57:40;;;;;;;2.67;2.00;;;;;;;;;;5033675;28;20033;-60
2023/12/17 13:00:06;;;;;;;3.97;2.28;;;;;;;;;;5021026;28;20029;-60
2023/12/17 13:02:32;;;;;;;3.40;2.20;;;;;;;;;;5040443;28;20041;-60
2023/12/17 13:04:58;;;;;;;3.40;2.30;;;;;;;;;;5043747;28;20075;-60
2023/12/17 13:07:23;;;;;;;2.75;2.10;;;;;;;;;;5055299;28;20033;-60
2023/12/17 13:09:48;;;;;;;3.55;2.15;;;;;;;;;;5048850;28;20355;-60
2023/12/17 13:12:14;;;;;;;2.63;2.25;;;;;;;;;;5050173;28;20041;-60
2023/12/17 13:14:39;;;;;;;4.38;2.60;;;;;;;;;;5048617;28;20151;-60
2023/12/17 13:17:05;;;;;;;3.10;2.15;;;;;;;;;;5045300;28;20113;-60
2023/12/17 13:19:30;;;;;;;3.35;2.17;;;;;;;;;;5034641;28;20261;-61
2023/12/17 13:21:56;;;;;;;4.03;2.25;;;;;;;;;;5036661;28;20063;-62
2023/12/17 13:24:22;;;;;;;2.80;2.20;;;;;;;;;;5025763;28;20152;-60
2023/12/17 13:26:47;;;;;;;3.17;2.22;;;;;;;;;;5042121;28;20099;-60
2023/12/17 13:29:12;;;;;;;3.08;2.10;;;;;;;;;;5045790;28;20934;-60
2023/12/17 13:31:38;;;;;;;3.10;2.08;;;;;;;;;;5051737;28;20491;-60
2023/12/17 13:34:03;;;;;;;15.50;2.92;;;;;;;;;;5024855;28;20511;-60
2023/12/17 13:36:28;;;;;;;8.27;2.60;;;;;;;;;;5041535;28;20045;-60
2023/12/17 13:38:54;;;;;;;4.85;2.78;;;;;;;;;;5025634;28;20029;-59
2023/12/17 13:41:19;;;;;;;4.70;2.55;;;;;;;;;;5042750;28;20048;-59
2023/12/17 13:43:44;;;;;;;5.40;2.55;;;;;;;;;;5044301;28;20041;-59
2023/12/17 13:46:10;;;;;;;6.97;2.90;;;;;;;;;;5039141;28;20466;-60
2023/12/17 13:48:35;;;;;;;5.25;2.55;;;;;;;;;;5022983;28;20033;-60
2023/12/17 13:51:00;;;;;;;6.38;2.35;;;;;;;;;;5043658;28;20041;-59
2023/12/17 13:53:26;;;;;;;4.53;2.35;;;;;;;;;;5036400;28;20033;-59
2023/12/17 13:55:51;;;;;;;3.28;2.30;;;;;;;;;;5045582;28;20049;-58
2023/12/17 13:58:17;;;;;;;3.53;2.30;;;;;;;;;;5038840;28;20041;-59
2023/12/17 14:00:43;;;;;;;2.80;2.15;;;;;;;;;;5038862;28;20041;-71
2023/12/17 14:03:08;;;;;;;2.92;2.08;;;;;;;;;;5042039;28;20048;-59
2023/12/17 14:05:33;;;;;;;4.95;2.45;;;;;;;;;;5042181;28;20041;-59
2023/12/17 14:07:58;;;;;;;4.07;2.30;;;;;;;;;;5025312;28;20025;-59
2023/12/17 14:10:24;;;;;;;4.75;2.55;;;;;;;;;;5023247;28;20889;-59
2023/12/17 14:12:49;;;;;;;3.65;2.70;;;;;;;;;;5023048;28;20049;-60
2023/12/17 14:15:15;;;;;;;4.28;2.67;;;;;;;;;;5034103;28;20090;-60
2023/12/17 14:17:40;;;;;;;5.15;2.47;;;;;;;;;;5044339;28;20467;-59
2023/12/17 14:20:06;;;;;;;3.10;2.22;;;;;;;;;;5037209;28;20060;-59
2023/12/17 14:22:31;;;;;;;3.40;2.47;;;;;;;;;;5032339;28;20036;-60
2023/12/17 14:24:57;;;;;;;3.78;2.60;;;;;;;;;;5027255;28;20029;-59
2023/12/17 14:27:22;;;;;;;5.13;2.85;;;;;;;;;;5039110;28;20043;-60
2023/12/17 14:29:47;;;;;;;4.20;2.55;;;;;;;;;;5034929;28;20090;-59
2023/12/17 14:32:14;;;;;;;4.65;2.60;;;;;;;;;;5043126;28;20407;-59